sensor_id;sensor_type;location;lat;lon;timestamp;P1;durP1;ratioP1;P2;durP2;ratioP2
16822;SDS011;8528;49.976;11.858;2022-10-16T00:21:47;2.20;;;2.00;;
16822;SDS011;8528;49.976;11.858;2022-10-16T00:24:14;1.77;;;1.67;;
16822;SDS011;8528;49.976;11.858;2022-10-16T00:26:41;1.93;;;1.83;;
16822;SDS011;8528;49.976;11.858;2022-10-16T00:29:07;2.37;;;1.80;;
16822;SDS011;8528;49.976;11.858;2022-10-16T00:31:35;2.00;;;1.80;;
16822;SDS011;8528;49.976;11.858;2022-10-16T00:34:02;1.73;;;1.63;;
16822;SDS011;8528;49.976;11.858;2022-10-16T00:36:32;1.50;;;1.40;;
16822;SDS011;8528;49.976;11.858;2022-10-16T00:38:59;1.50;;;1.40;;
16822;SDS011;8528;49.976;11.858;2022-10-16T00:41:29;1.40;;;1.30;;
16822;SDS011;8528;49.976;11.858;2022-10-16T00:44:00;1.27;;;1.17;;
16822;SDS011;8528;49.976;11.858;2022-10-16T00:46:31;1.40;;;1.20;;
16822;SDS011;8528;49.976;11.858;2022-10-16T00:51:39;2.03;;;1.30;;
16822;SDS011;8528;49.976;11.858;2022-10-16T00:54:14;3.33;;;1.67;;
16822;SDS011;8528;49.976;11.858;2022-10-16T00:56:56;1.60;;;1.50;;
16822;SDS011;8528;49.976;11.858;2022-10-16T00:59:28;2.00;;;1.70;;
16822;SDS011;8528;49.976;11.858;2022-10-16T01:01:57;2.40;;;1.60;;
16822;SDS011;8528;49.976;11.858;2022-10-16T01:04:26;2.97;;;1.80;;
16822;SDS011;8528;49.976;11.858;2022-10-16T01:12:22;2.53;;;1.97;;
16822;SDS011;8528;49.976;11.858;2022-10-16T01:15:15;1.80;;;1.70;;
16822;SDS011;8528;49.976;11.858;2022-10-16T01:20:45;2.20;;;2.00;;
16822;SDS011;8528;49.976;11.858;2022-10-16T01:29:09;2.30;;;2.10;;
16822;SDS011;8528;49.976;11.858;2022-10-16T01:32:04;2.07;;;1.90;;
16822;SDS011;8528;49.976;11.858;2022-10-16T01:34:47;1.70;;;1.60;;
16822;SDS011;8528;49.976;11.858;2022-10-16T01:37:29;2.07;;;1.87;;
16822;SDS011;8528;49.976;11.858;2022-10-16T01:40:05;3.10;;;1.70;;
16822;SDS011;8528;49.976;11.858;2022-10-16T01:42:37;1.60;;;1.50;;
16822;SDS011;8528;49.976;11.858;2022-10-16T01:45:08;1.90;;;1.70;;
16822;SDS011;8528;49.976;11.858;2022-10-16T01:47:39;1.80;;;1.70;;
16822;SDS011;8528;49.976;11.858;2022-10-16T01:50:08;1.80;;;1.70;;
16822;SDS011;8528;49.976;11.858;2022-10-16T01:52:36;3.53;;;1.80;;
16822;SDS011;8528;49.976;11.858;2022-10-16T01:55:07;2.97;;;1.70;;
16822;SDS011;8528;49.976;11.858;2022-10-16T01:57:38;3.03;;;1.60;;
16822;SDS011;8528;49.976;11.858;2022-10-16T02:00:09;2.40;;;1.87;;
16822;SDS011;8528;49.976;11.858;2022-10-16T02:02:42;2.20;;;2.00;;
16822;SDS011;8528;49.976;11.858;2022-10-16T02:05:23;2.30;;;2.10;;
16822;SDS011;8528;49.976;11.858;2022-10-16T02:07:52;1.90;;;1.70;;
16822;SDS011;8528;49.976;11.858;2022-10-16T02:10:19;2.07;;;1.90;;
16822;SDS011;8528;49.976;11.858;2022-10-16T02:12:49;1.80;;;1.70;;
16822;SDS011;8528;49.976;11.858;2022-10-16T02:15:28;3.13;;;2.00;;
16822;SDS011;8528;49.976;11.858;2022-10-16T02:17:55;2.40;;;2.17;;
16822;SDS011;8528;49.976;11.858;2022-10-16T02:20:25;2.00;;;1.87;;
16822;SDS011;8528;49.976;11.858;2022-10-16T02:22:54;1.70;;;1.60;;
16822;SDS011;8528;49.976;11.858;2022-10-16T02:25:34;2.00;;;1.90;;
16822;SDS011;8528;49.976;11.858;2022-10-16T02:28:09;3.30;;;1.90;;
16822;SDS011;8528;49.976;11.858;2022-10-16T02:31:03;2.37;;;1.90;;
16822;SDS011;8528;49.976;11.858;2022-10-16T02:33:32;2.27;;;2.07;;
16822;SDS011;8528;49.976;11.858;2022-10-16T02:36:02;2.20;;;2.00;;
16822;SDS011;8528;49.976;11.858;2022-10-16T02:38:29;1.63;;;1.53;;
16822;SDS011;8528;49.976;11.858;2022-10-16T02:40:57;1.70;;;1.60;;
16822;SDS011;8528;49.976;11.858;2022-10-16T02:43:25;2.00;;;1.80;;
16822;SDS011;8528;49.976;11.858;2022-10-16T02:45:52;2.20;;;2.03;;
16822;SDS011;8528;49.976;11.858;2022-10-16T02:48:19;2.53;;;1.90;;
16822;SDS011;8528;49.976;11.858;2022-10-16T02:50:46;2.57;;;2.23;;
16822;SDS011;8528;49.976;11.858;2022-10-16T02:53:13;2.30;;;2.10;;
16822;SDS011;8528;49.976;11.858;2022-10-16T02:55:40;2.00;;;1.80;;
16822;SDS011;8528;49.976;11.858;2022-10-16T02:58:08;1.97;;;1.87;;
16822;SDS011;8528;49.976;11.858;2022-10-16T03:00:35;3.20;;;2.27;;
16822;SDS011;8528;49.976;11.858;2022-10-16T03:03:01;3.43;;;2.50;;
16822;SDS011;8528;49.976;11.858;2022-10-16T03:05:28;2.70;;;2.10;;
16822;SDS011;8528;49.976;11.858;2022-10-16T03:07:55;2.40;;;2.20;;
16822;SDS011;8528;49.976;11.858;2022-10-16T03:10:22;4.27;;;2.77;;
16822;SDS011;8528;49.976;11.858;2022-10-16T03:12:49;3.07;;;2.60;;
16822;SDS011;8528;49.976;11.858;2022-10-16T03:15:15;2.60;;;2.30;;
16822;SDS011;8528;49.976;11.858;2022-10-16T03:17:42;3.10;;;2.50;;
16822;SDS011;8528;49.976;11.858;2022-10-16T03:20:09;2.80;;;2.60;;
16822;SDS011;8528;49.976;11.858;2022-10-16T03:22:36;3.47;;;3.17;;
16822;SDS011;8528;49.976;11.858;2022-10-16T03:25:03;3.40;;;3.10;;
16822;SDS011;8528;49.976;11.858;2022-10-16T03:27:31;4.90;;;3.30;;
16822;SDS011;8528;49.976;11.858;2022-10-16T03:30:02;3.60;;;3.23;;
16822;SDS011;8528;49.976;11.858;2022-10-16T03:32:29;3.40;;;3.10;;
16822;SDS011;8528;49.976;11.858;2022-10-16T03:34:56;3.30;;;3.10;;
16822;SDS011;8528;49.976;11.858;2022-10-16T03:37:24;5.37;;;3.37;;
16822;SDS011;8528;49.976;11.858;2022-10-16T03:39:52;3.33;;;3.07;;
16822;SDS011;8528;49.976;11.858;2022-10-16T03:42:19;3.87;;;3.47;;
16822;SDS011;8528;49.976;11.858;2022-10-16T03:44:48;3.77;;;3.47;;
16822;SDS011;8528;49.976;11.858;2022-10-16T03:47:15;3.70;;;3.37;;
16822;SDS011;8528;49.976;11.858;2022-10-16T03:49:46;4.17;;;3.63;;
16822;SDS011;8528;49.976;11.858;2022-10-16T03:52:14;3.90;;;3.60;;
16822;SDS011;8528;49.976;11.858;2022-10-16T03:54:41;4.37;;;3.97;;
16822;SDS011;8528;49.976;11.858;2022-10-16T03:57:08;3.90;;;3.60;;
16822;SDS011;8528;49.976;11.858;2022-10-16T03:59:35;4.03;;;3.63;;
16822;SDS011;8528;49.976;11.858;2022-10-16T04:02:01;4.50;;;4.10;;
16822;SDS011;8528;49.976;11.858;2022-10-16T04:04:29;4.30;;;3.87;;
16822;SDS011;8528;49.976;11.858;2022-10-16T04:06:56;3.80;;;3.50;;
16822;SDS011;8528;49.976;11.858;2022-10-16T04:09:26;4.33;;;3.93;;
16822;SDS011;8528;49.976;11.858;2022-10-16T04:11:53;5.10;;;4.23;;
16822;SDS011;8528;49.976;11.858;2022-10-16T04:14:20;4.13;;;3.73;;
16822;SDS011;8528;49.976;11.858;2022-10-16T04:16:47;4.67;;;4.00;;
16822;SDS011;8528;49.976;11.858;2022-10-16T04:19:13;4.60;;;4.07;;
16822;SDS011;8528;49.976;11.858;2022-10-16T04:21:40;6.23;;;4.13;;
16822;SDS011;8528;49.976;11.858;2022-10-16T04:24:07;4.63;;;4.07;;
16822;SDS011;8528;49.976;11.858;2022-10-16T04:26:34;4.53;;;4.13;;
16822;SDS011;8528;49.976;11.858;2022-10-16T04:29:00;4.03;;;3.47;;
16822;SDS011;8528;49.976;11.858;2022-10-16T04:31:29;4.80;;;3.63;;
16822;SDS011;8528;49.976;11.858;2022-10-16T04:33:57;4.07;;;3.73;;
16822;SDS011;8528;49.976;11.858;2022-10-16T04:36:23;4.53;;;3.73;;
16822;SDS011;8528;49.976;11.858;2022-10-16T04:38:54;5.17;;;4.20;;
16822;SDS011;8528;49.976;11.858;2022-10-16T04:41:21;3.87;;;3.40;;
16822;SDS011;8528;49.976;11.858;2022-10-16T04:43:47;4.57;;;3.87;;
16822;SDS011;8528;49.976;11.858;2022-10-16T04:46:14;4.47;;;4.07;;
16822;SDS011;8528;49.976;11.858;2022-10-16T04:48:41;4.50;;;4.07;;
16822;SDS011;8528;49.976;11.858;2022-10-16T04:51:08;3.30;;;3.00;;
16822;SDS011;8528;49.976;11.858;2022-10-16T04:53:35;5.10;;;3.67;;
16822;SDS011;8528;49.976;11.858;2022-10-16T04:56:01;3.97;;;3.57;;
16822;SDS011;8528;49.976;11.858;2022-10-16T04:58:28;4.50;;;4.10;;
16822;SDS011;8528;49.976;11.858;2022-10-16T05:00:55;4.83;;;3.87;;
16822;SDS011;8528;49.976;11.858;2022-10-16T05:03:22;4.77;;;4.27;;
16822;SDS011;8528;49.976;11.858;2022-10-16T05:05:48;4.57;;;4.17;;
16822;SDS011;8528;49.976;11.858;2022-10-16T05:08:16;4.60;;;4.20;;
16822;SDS011;8528;49.976;11.858;2022-10-16T05:10:43;5.03;;;4.53;;
16822;SDS011;8528;49.976;11.858;2022-10-16T05:13:11;5.43;;;4.63;;
16822;SDS011;8528;49.976;11.858;2022-10-16T05:15:38;5.60;;;4.60;;
16822;SDS011;8528;49.976;11.858;2022-10-16T05:18:05;5.10;;;4.60;;
16822;SDS011;8528;49.976;11.858;2022-10-16T05:20:35;5.50;;;5.00;;
16822;SDS011;8528;49.976;11.858;2022-10-16T05:23:03;6.07;;;4.70;;
16822;SDS011;8528;49.976;11.858;2022-10-16T05:25:29;5.17;;;4.77;;
16822;SDS011;8528;49.976;11.858;2022-10-16T05:27:56;6.23;;;4.83;;
16822;SDS011;8528;49.976;11.858;2022-10-16T05:30:23;5.53;;;5.03;;
16822;SDS011;8528;49.976;11.858;2022-10-16T05:32:50;4.80;;;4.30;;
16822;SDS011;8528;49.976;11.858;2022-10-16T05:35:17;8.43;;;4.40;;
16822;SDS011;8528;49.976;11.858;2022-10-16T05:37:45;4.83;;;4.40;;
16822;SDS011;8528;49.976;11.858;2022-10-16T05:40:14;4.53;;;4.13;;
16822;SDS011;8528;49.976;11.858;2022-10-16T05:42:41;5.00;;;3.67;;
16822;SDS011;8528;49.976;11.858;2022-10-16T05:45:08;4.10;;;3.80;;
16822;SDS011;8528;49.976;11.858;2022-10-16T05:47:38;6.00;;;3.97;;
16822;SDS011;8528;49.976;11.858;2022-10-16T05:50:05;4.37;;;4.00;;
16822;SDS011;8528;49.976;11.858;2022-10-16T05:52:32;4.70;;;4.13;;
16822;SDS011;8528;49.976;11.858;2022-10-16T05:54:59;4.10;;;3.70;;
16822;SDS011;8528;49.976;11.858;2022-10-16T05:57:26;4.90;;;4.40;;
16822;SDS011;8528;49.976;11.858;2022-10-16T05:59:53;4.57;;;3.60;;
16822;SDS011;8528;49.976;11.858;2022-10-16T06:02:20;5.10;;;3.93;;
16822;SDS011;8528;49.976;11.858;2022-10-16T06:04:46;4.27;;;3.80;;
16822;SDS011;8528;49.976;11.858;2022-10-16T06:07:13;4.77;;;4.30;;
16822;SDS011;8528;49.976;11.858;2022-10-16T06:09:40;5.50;;;3.70;;
16822;SDS011;8528;49.976;11.858;2022-10-16T06:12:07;4.67;;;4.27;;
16822;SDS011;8528;49.976;11.858;2022-10-16T06:14:33;4.40;;;4.00;;
16822;SDS011;8528;49.976;11.858;2022-10-16T06:17:00;4.00;;;3.70;;
16822;SDS011;8528;49.976;11.858;2022-10-16T06:19:27;5.37;;;3.67;;
16822;SDS011;8528;49.976;11.858;2022-10-16T06:21:55;3.90;;;3.60;;
16822;SDS011;8528;49.976;11.858;2022-10-16T06:24:24;4.00;;;3.70;;
16822;SDS011;8528;49.976;11.858;2022-10-16T06:26:52;4.23;;;3.47;;
16822;SDS011;8528;49.976;11.858;2022-10-16T06:29:19;3.90;;;3.43;;
16822;SDS011;8528;49.976;11.858;2022-10-16T06:31:46;4.77;;;3.80;;
16822;SDS011;8528;49.976;11.858;2022-10-16T06:34:12;5.17;;;3.50;;
16822;SDS011;8528;49.976;11.858;2022-10-16T06:36:39;5.40;;;3.50;;
16822;SDS011;8528;49.976;11.858;2022-10-16T06:39:07;3.27;;;2.93;;
16822;SDS011;8528;49.976;11.858;2022-10-16T06:41:33;4.60;;;3.40;;
16822;SDS011;8528;49.976;11.858;2022-10-16T06:44:00;3.17;;;2.73;;
16822;SDS011;8528;49.976;11.858;2022-10-16T06:46:27;2.87;;;2.67;;
16822;SDS011;8528;49.976;11.858;2022-10-16T06:48:54;4.07;;;2.73;;
16822;SDS011;8528;49.976;11.858;2022-10-16T06:51:22;2.60;;;2.40;;
16822;SDS011;8528;49.976;11.858;2022-10-16T06:53:50;4.00;;;2.43;;
16822;SDS011;8528;49.976;11.858;2022-10-16T06:56:29;2.93;;;2.63;;
16822;SDS011;8528;49.976;11.858;2022-10-16T06:58:58;2.90;;;2.50;;
16822;SDS011;8528;49.976;11.858;2022-10-16T07:01:25;3.23;;;2.90;;
16822;SDS011;8528;49.976;11.858;2022-10-16T07:03:53;2.93;;;2.73;;
16822;SDS011;8528;49.976;11.858;2022-10-16T07:06:21;2.77;;;2.50;;
16822;SDS011;8528;49.976;11.858;2022-10-16T07:08:51;2.87;;;2.67;;
16822;SDS011;8528;49.976;11.858;2022-10-16T07:11:19;3.40;;;2.90;;
16822;SDS011;8528;49.976;11.858;2022-10-16T07:13:48;3.20;;;2.90;;
16822;SDS011;8528;49.976;11.858;2022-10-16T07:16:21;2.87;;;2.67;;
16822;SDS011;8528;49.976;11.858;2022-10-16T07:18:49;3.13;;;2.83;;
16822;SDS011;8528;49.976;11.858;2022-10-16T07:21:21;2.93;;;2.73;;
16822;SDS011;8528;49.976;11.858;2022-10-16T07:58:40;4.07;;;3.67;;
16822;SDS011;8528;49.976;11.858;2022-10-16T08:01:10;8.33;;;6.70;;
16822;SDS011;8528;49.976;11.858;2022-10-16T08:03:47;6.73;;;5.07;;
16822;SDS011;8528;49.976;11.858;2022-10-16T08:06:22;5.23;;;4.27;;
16822;SDS011;8528;49.976;11.858;2022-10-16T08:08:53;3.87;;;3.17;;
16822;SDS011;8528;49.976;11.858;2022-10-16T08:11:26;2.70;;;2.50;;
16822;SDS011;8528;49.976;11.858;2022-10-16T08:13:53;3.63;;;3.17;;
16822;SDS011;8528;49.976;11.858;2022-10-16T08:16:20;2.93;;;2.70;;
16822;SDS011;8528;49.976;11.858;2022-10-16T08:18:47;3.97;;;2.63;;
16822;SDS011;8528;49.976;11.858;2022-10-16T08:21:15;2.53;;;2.33;;
16822;SDS011;8528;49.976;11.858;2022-10-16T08:23:46;3.07;;;2.50;;
16822;SDS011;8528;49.976;11.858;2022-10-16T08:26:23;3.30;;;3.00;;
16822;SDS011;8528;49.976;11.858;2022-10-16T08:28:51;4.87;;;3.30;;
16822;SDS011;8528;49.976;11.858;2022-10-16T08:31:21;2.60;;;2.40;;
16822;SDS011;8528;49.976;11.858;2022-10-16T08:33:51;7.50;;;6.47;;
16822;SDS011;8528;49.976;11.858;2022-10-16T08:36:19;9.30;;;6.70;;
16822;SDS011;8528;49.976;11.858;2022-10-16T08:38:51;2.80;;;2.57;;
16822;SDS011;8528;49.976;11.858;2022-10-16T08:41:26;3.93;;;2.90;;
16822;SDS011;8528;49.976;11.858;2022-10-16T08:47:00;2.43;;;2.20;;
16822;SDS011;8528;49.976;11.858;2022-10-16T08:49:38;3.30;;;1.67;;
16822;SDS011;8528;49.976;11.858;2022-10-16T08:52:10;2.30;;;2.10;;
16822;SDS011;8528;49.976;11.858;2022-10-16T08:54:48;2.77;;;2.20;;
16822;SDS011;8528;49.976;11.858;2022-10-16T08:57:23;3.20;;;1.90;;
16822;SDS011;8528;49.976;11.858;2022-10-16T08:59:51;5.70;;;2.50;;
16822;SDS011;8528;49.976;11.858;2022-10-16T09:02:35;5.40;;;2.50;;
16822;SDS011;8528;49.976;11.858;2022-10-16T09:10:58;2.10;;;1.90;;
16822;SDS011;8528;49.976;11.858;2022-10-16T09:13:43;4.00;;;2.27;;
16822;SDS011;8528;49.976;11.858;2022-10-16T09:16:27;2.60;;;2.40;;
16822;SDS011;8528;49.976;11.858;2022-10-16T09:19:14;2.77;;;2.37;;
16822;SDS011;8528;49.976;11.858;2022-10-16T09:21:45;3.20;;;2.97;;
16822;SDS011;8528;49.976;11.858;2022-10-16T09:24:21;3.80;;;3.50;;
16822;SDS011;8528;49.976;11.858;2022-10-16T09:26:54;5.10;;;4.70;;
16822;SDS011;8528;49.976;11.858;2022-10-16T09:29:21;3.23;;;2.90;;
16822;SDS011;8528;49.976;11.858;2022-10-16T09:31:52;7.33;;;5.60;;
16822;SDS011;8528;49.976;11.858;2022-10-16T09:34:26;6.90;;;6.10;;
16822;SDS011;8528;49.976;11.858;2022-10-16T09:36:59;4.57;;;4.17;;
16822;SDS011;8528;49.976;11.858;2022-10-16T09:39:43;4.97;;;3.57;;
16822;SDS011;8528;49.976;11.858;2022-10-16T09:42:21;3.97;;;3.67;;
16822;SDS011;8528;49.976;11.858;2022-10-16T09:44:54;4.00;;;3.60;;
16822;SDS011;8528;49.976;11.858;2022-10-16T09:47:22;2.93;;;2.73;;
16822;SDS011;8528;49.976;11.858;2022-10-16T09:52:22;3.30;;;2.90;;
16822;SDS011;8528;49.976;11.858;2022-10-16T09:54:56;3.33;;;3.03;;
16822;SDS011;8528;49.976;11.858;2022-10-16T09:57:28;3.47;;;3.17;;
16822;SDS011;8528;49.976;11.858;2022-10-16T09:59:57;3.10;;;2.90;;
16822;SDS011;8528;49.976;11.858;2022-10-16T10:02:33;5.13;;;2.97;;
16822;SDS011;8528;49.976;11.858;2022-10-16T10:05:02;4.13;;;3.30;;
16822;SDS011;8528;49.976;11.858;2022-10-16T10:07:32;7.20;;;3.43;;
16822;SDS011;8528;49.976;11.858;2022-10-16T10:10:20;3.90;;;3.03;;
16822;SDS011;8528;49.976;11.858;2022-10-16T10:12:57;3.90;;;2.60;;
16822;SDS011;8528;49.976;11.858;2022-10-16T10:15:33;2.90;;;2.70;;
16822;SDS011;8528;49.976;11.858;2022-10-16T10:18:02;4.00;;;2.70;;
16822;SDS011;8528;49.976;11.858;2022-10-16T10:20:42;4.30;;;2.80;;
16822;SDS011;8528;49.976;11.858;2022-10-16T10:23:25;3.73;;;2.90;;
16822;SDS011;8528;49.976;11.858;2022-10-16T10:26:10;3.27;;;2.67;;
16822;SDS011;8528;49.976;11.858;2022-10-16T10:31:55;3.57;;;2.50;;
16822;SDS011;8528;49.976;11.858;2022-10-16T10:34:46;6.47;;;2.80;;
16822;SDS011;8528;49.976;11.858;2022-10-16T10:37:26;4.83;;;3.27;;
16822;SDS011;8528;49.976;11.858;2022-10-16T10:50:49;4.30;;;3.90;;
16822;SDS011;8528;49.976;11.858;2022-10-16T10:56:13;5.63;;;3.67;;
16822;SDS011;8528;49.976;11.858;2022-10-16T11:07:10;5.03;;;3.63;;
16822;SDS011;8528;49.976;11.858;2022-10-16T11:09:59;5.77;;;4.40;;
16822;SDS011;8528;49.976;11.858;2022-10-16T11:12:44;7.43;;;4.97;;
16822;SDS011;8528;49.976;11.858;2022-10-16T11:15:18;7.33;;;5.53;;
16822;SDS011;8528;49.976;11.858;2022-10-16T11:18:06;6.60;;;4.20;;
16822;SDS011;8528;49.976;11.858;2022-10-16T11:26:33;5.90;;;4.57;;
16822;SDS011;8528;49.976;11.858;2022-10-16T11:29:02;3.10;;;2.77;;
16822;SDS011;8528;49.976;11.858;2022-10-16T11:48:04;5.70;;;4.17;;
16822;SDS011;8528;49.976;11.858;2022-10-16T11:53:23;7.37;;;5.20;;
16822;SDS011;8528;49.976;11.858;2022-10-16T11:56:12;22.63;;;14.77;;
16822;SDS011;8528;49.976;11.858;2022-10-16T11:59:01;9.23;;;5.80;;
16822;SDS011;8528;49.976;11.858;2022-10-16T12:01:45;8.17;;;4.20;;
16822;SDS011;8528;49.976;11.858;2022-10-16T12:04:35;4.60;;;3.13;;
16822;SDS011;8528;49.976;11.858;2022-10-16T12:07:14;4.57;;;3.20;;
16822;SDS011;8528;49.976;11.858;2022-10-16T12:09:45;4.43;;;3.17;;
16822;SDS011;8528;49.976;11.858;2022-10-16T12:12:28;3.40;;;3.10;;
16822;SDS011;8528;49.976;11.858;2022-10-16T12:18:07;2.63;;;2.40;;
16822;SDS011;8528;49.976;11.858;2022-10-16T12:20:57;3.37;;;2.63;;
16822;SDS011;8528;49.976;11.858;2022-10-16T12:23:33;2.87;;;2.43;;
16822;SDS011;8528;49.976;11.858;2022-10-16T12:26:04;5.30;;;2.53;;
16822;SDS011;8528;49.976;11.858;2022-10-16T12:28:33;5.53;;;2.40;;
16822;SDS011;8528;49.976;11.858;2022-10-16T12:31:05;2.40;;;2.20;;
16822;SDS011;8528;49.976;11.858;2022-10-16T12:33:40;2.30;;;1.93;;
16822;SDS011;8528;49.976;11.858;2022-10-16T12:36:30;2.50;;;2.30;;
16822;SDS011;8528;49.976;11.858;2022-10-16T12:39:00;2.27;;;2.07;;
16822;SDS011;8528;49.976;11.858;2022-10-16T12:41:34;2.77;;;1.80;;
16822;SDS011;8528;49.976;11.858;2022-10-16T12:44:03;2.20;;;2.00;;
16822;SDS011;8528;49.976;11.858;2022-10-16T12:51:38;4.80;;;2.13;;
16822;SDS011;8528;49.976;11.858;2022-10-16T13:08:03;3.17;;;2.17;;
16822;SDS011;8528;49.976;11.858;2022-10-16T13:11:24;2.90;;;2.13;;
16822;SDS011;8528;49.976;11.858;2022-10-16T13:21:55;3.07;;;2.00;;
16822;SDS011;8528;49.976;11.858;2022-10-16T13:27:23;2.10;;;2.00;;
16822;SDS011;8528;49.976;11.858;2022-10-16T13:33:03;1.90;;;1.70;;
16822;SDS011;8528;49.976;11.858;2022-10-16T13:35:46;2.13;;;1.93;;
16822;SDS011;8528;49.976;11.858;2022-10-16T13:38:19;2.67;;;1.67;;
16822;SDS011;8528;49.976;11.858;2022-10-16T13:40:52;3.07;;;1.73;;
16822;SDS011;8528;49.976;11.858;2022-10-16T13:43:39;2.30;;;1.93;;
16822;SDS011;8528;49.976;11.858;2022-10-16T13:46:19;2.90;;;1.97;;
16822;SDS011;8528;49.976;11.858;2022-10-16T13:48:57;2.13;;;1.50;;
16822;SDS011;8528;49.976;11.858;2022-10-16T13:51:29;2.73;;;1.60;;
16822;SDS011;8528;49.976;11.858;2022-10-16T13:53:57;2.50;;;1.90;;
16822;SDS011;8528;49.976;11.858;2022-10-16T13:56:28;1.60;;;1.50;;
16822;SDS011;8528;49.976;11.858;2022-10-16T13:59:00;3.20;;;1.60;;
16822;SDS011;8528;49.976;11.858;2022-10-16T14:01:30;2.73;;;1.63;;
16822;SDS011;8528;49.976;11.858;2022-10-16T14:04:08;1.80;;;1.70;;
16822;SDS011;8528;49.976;11.858;2022-10-16T14:06:40;4.43;;;1.90;;
16822;SDS011;8528;49.976;11.858;2022-10-16T14:11:56;4.60;;;2.27;;
16822;SDS011;8528;49.976;11.858;2022-10-16T14:14:32;2.30;;;1.97;;
16822;SDS011;8528;49.976;11.858;2022-10-16T14:17:06;2.37;;;1.60;;
16822;SDS011;8528;49.976;11.858;2022-10-16T14:19:40;2.63;;;1.90;;
16822;SDS011;8528;49.976;11.858;2022-10-16T14:22:23;2.77;;;2.30;;
16822;SDS011;8528;49.976;11.858;2022-10-16T14:30:32;2.23;;;2.03;;
16822;SDS011;8528;49.976;11.858;2022-10-16T14:33:05;2.20;;;2.00;;
16822;SDS011;8528;49.976;11.858;2022-10-16T14:35:44;2.63;;;2.17;;
16822;SDS011;8528;49.976;11.858;2022-10-16T14:38:18;3.00;;;1.97;;
16822;SDS011;8528;49.976;11.858;2022-10-16T14:40:46;1.97;;;1.80;;
16822;SDS011;8528;49.976;11.858;2022-10-16T14:43:20;6.00;;;1.90;;
16822;SDS011;8528;49.976;11.858;2022-10-16T14:45:53;3.40;;;2.20;;
16822;SDS011;8528;49.976;11.858;2022-10-16T14:48:22;2.57;;;2.10;;
16822;SDS011;8528;49.976;11.858;2022-10-16T14:50:50;2.47;;;1.87;;
16822;SDS011;8528;49.976;11.858;2022-10-16T14:53:17;1.87;;;1.73;;
16822;SDS011;8528;49.976;11.858;2022-10-16T14:55:43;3.20;;;2.00;;
16822;SDS011;8528;49.976;11.858;2022-10-16T14:58:18;2.80;;;2.27;;
16822;SDS011;8528;49.976;11.858;2022-10-16T15:00:47;3.03;;;2.07;;
16822;SDS011;8528;49.976;11.858;2022-10-16T15:03:15;2.67;;;2.33;;
16822;SDS011;8528;49.976;11.858;2022-10-16T15:05:42;4.23;;;2.60;;
16822;SDS011;8528;49.976;11.858;2022-10-16T15:08:09;3.47;;;2.10;;
16822;SDS011;8528;49.976;11.858;2022-10-16T15:10:38;3.47;;;1.90;;
16822;SDS011;8528;49.976;11.858;2022-10-16T15:13:08;5.00;;;2.33;;
16822;SDS011;8528;49.976;11.858;2022-10-16T15:15:42;3.10;;;2.63;;
16822;SDS011;8528;49.976;11.858;2022-10-16T15:18:10;2.40;;;2.20;;
16822;SDS011;8528;49.976;11.858;2022-10-16T15:20:38;3.03;;;2.73;;
16822;SDS011;8528;49.976;11.858;2022-10-16T15:23:18;3.03;;;2.67;;
16822;SDS011;8528;49.976;11.858;2022-10-16T15:28:20;5.83;;;4.57;;
16822;SDS011;8528;49.976;11.858;2022-10-16T15:30:49;8.57;;;5.90;;
16822;SDS011;8528;49.976;11.858;2022-10-16T15:33:18;7.47;;;6.07;;
16822;SDS011;8528;49.976;11.858;2022-10-16T15:35:50;4.37;;;3.60;;
16822;SDS011;8528;49.976;11.858;2022-10-16T15:38:18;33.20;;;19.30;;
16822;SDS011;8528;49.976;11.858;2022-10-16T15:40:47;64.90;;;30.63;;
16822;SDS011;8528;49.976;11.858;2022-10-16T15:43:15;32.17;;;17.03;;
16822;SDS011;8528;49.976;11.858;2022-10-16T15:46:03;15.37;;;10.27;;
16822;SDS011;8528;49.976;11.858;2022-10-16T15:48:32;54.03;;;24.60;;
16822;SDS011;8528;49.976;11.858;2022-10-16T15:51:05;42.27;;;18.53;;
16822;SDS011;8528;49.976;11.858;2022-10-16T15:53:34;32.97;;;17.90;;
16822;SDS011;8528;49.976;11.858;2022-10-16T15:56:02;27.60;;;15.33;;
16822;SDS011;8528;49.976;11.858;2022-10-16T15:58:29;13.57;;;9.60;;
16822;SDS011;8528;49.976;11.858;2022-10-16T16:00:57;13.53;;;9.63;;
16822;SDS011;8528;49.976;11.858;2022-10-16T16:03:27;11.17;;;8.50;;
16822;SDS011;8528;49.976;11.858;2022-10-16T16:05:55;4.53;;;3.47;;
16822;SDS011;8528;49.976;11.858;2022-10-16T16:08:22;6.03;;;3.40;;
16822;SDS011;8528;49.976;11.858;2022-10-16T16:13:51;9.83;;;5.23;;
16822;SDS011;8528;49.976;11.858;2022-10-16T16:16:20;7.80;;;6.50;;
16822;SDS011;8528;49.976;11.858;2022-10-16T16:19:07;10.30;;;6.47;;
16822;SDS011;8528;49.976;11.858;2022-10-16T16:21:37;6.13;;;5.20;;
16822;SDS011;8528;49.976;11.858;2022-10-16T16:24:05;5.93;;;4.60;;
16822;SDS011;8528;49.976;11.858;2022-10-16T16:26:34;7.77;;;4.83;;
16822;SDS011;8528;49.976;11.858;2022-10-16T16:29:05;7.60;;;4.83;;
16822;SDS011;8528;49.976;11.858;2022-10-16T16:31:34;7.80;;;5.60;;
16822;SDS011;8528;49.976;11.858;2022-10-16T16:34:04;6.10;;;5.37;;
16822;SDS011;8528;49.976;11.858;2022-10-16T16:36:32;8.27;;;6.57;;
16822;SDS011;8528;49.976;11.858;2022-10-16T16:38:59;8.00;;;5.93;;
16822;SDS011;8528;49.976;11.858;2022-10-16T16:41:28;12.97;;;7.40;;
16822;SDS011;8528;49.976;11.858;2022-10-16T16:44:04;12.73;;;8.80;;
16822;SDS011;8528;49.976;11.858;2022-10-16T16:46:33;27.43;;;16.40;;
16822;SDS011;8528;49.976;11.858;2022-10-16T16:49:00;22.43;;;16.77;;
16822;SDS011;8528;49.976;11.858;2022-10-16T16:51:27;13.77;;;11.40;;
16822;SDS011;8528;49.976;11.858;2022-10-16T16:54:00;18.97;;;13.87;;
16822;SDS011;8528;49.976;11.858;2022-10-16T16:56:27;20.00;;;16.80;;
16822;SDS011;8528;49.976;11.858;2022-10-16T16:58:55;11.60;;;9.10;;
16822;SDS011;8528;49.976;11.858;2022-10-16T17:01:24;13.67;;;10.83;;
16822;SDS011;8528;49.976;11.858;2022-10-16T17:03:53;11.00;;;9.77;;
16822;SDS011;8528;49.976;11.858;2022-10-16T17:06:23;10.40;;;8.33;;
16822;SDS011;8528;49.976;11.858;2022-10-16T17:08:51;19.77;;;15.13;;
16822;SDS011;8528;49.976;11.858;2022-10-16T17:11:20;17.93;;;13.67;;
16822;SDS011;8528;49.976;11.858;2022-10-16T17:13:48;17.87;;;14.40;;
16822;SDS011;8528;49.976;11.858;2022-10-16T17:16:23;19.00;;;15.50;;
16822;SDS011;8528;49.976;11.858;2022-10-16T17:18:51;27.73;;;23.27;;
16822;SDS011;8528;49.976;11.858;2022-10-16T17:21:19;20.87;;;16.37;;
16822;SDS011;8528;49.976;11.858;2022-10-16T17:23:46;17.17;;;12.97;;
16822;SDS011;8528;49.976;11.858;2022-10-16T17:26:13;25.83;;;16.10;;
16822;SDS011;8528;49.976;11.858;2022-10-16T17:28:42;19.40;;;15.87;;
16822;SDS011;8528;49.976;11.858;2022-10-16T17:31:13;20.83;;;14.50;;
16822;SDS011;8528;49.976;11.858;2022-10-16T17:33:46;16.73;;;13.57;;
16822;SDS011;8528;49.976;11.858;2022-10-16T17:36:13;16.53;;;12.63;;
16822;SDS011;8528;49.976;11.858;2022-10-16T17:38:42;12.70;;;10.83;;
16822;SDS011;8528;49.976;11.858;2022-10-16T17:41:10;12.37;;;10.80;;
16822;SDS011;8528;49.976;11.858;2022-10-16T17:43:49;15.77;;;12.77;;
16822;SDS011;8528;49.976;11.858;2022-10-16T17:46:18;17.47;;;13.07;;
16822;SDS011;8528;49.976;11.858;2022-10-16T17:48:47;15.57;;;10.67;;
16822;SDS011;8528;49.976;11.858;2022-10-16T17:51:17;11.93;;;9.20;;
16822;SDS011;8528;49.976;11.858;2022-10-16T17:53:47;10.60;;;9.23;;
16822;SDS011;8528;49.976;11.858;2022-10-16T17:56:16;16.17;;;11.07;;
16822;SDS011;8528;49.976;11.858;2022-10-16T17:58:46;15.80;;;11.40;;
16822;SDS011;8528;49.976;11.858;2022-10-16T18:01:18;13.20;;;11.87;;
16822;SDS011;8528;49.976;11.858;2022-10-16T18:04:09;13.70;;;10.60;;
16822;SDS011;8528;49.976;11.858;2022-10-16T18:06:39;11.13;;;9.60;;
16822;SDS011;8528;49.976;11.858;2022-10-16T18:09:11;8.93;;;7.70;;
16822;SDS011;8528;49.976;11.858;2022-10-16T18:11:42;10.93;;;7.43;;
16822;SDS011;8528;49.976;11.858;2022-10-16T18:14:10;8.20;;;6.43;;